createdAt,value
2017-10-06T00:02:11.543Z,81.80
2017-10-06T00:04:39.804Z,82.60
2017-10-06T00:07:08.063Z,81.80
2017-10-06T00:09:37.843Z,81.20
2017-10-06T00:12:06.103Z,81.00
2017-10-06T00:14:34.380Z,80.90
2017-10-06T00:17:02.657Z,80.90
2017-10-06T00:19:31.809Z,81.70
2017-10-06T00:22:00.060Z,81.60
2017-10-06T00:24:28.333Z,81.90
2017-10-06T00:26:56.613Z,81.60
2017-10-06T00:29:24.900Z,82.20
2017-10-06T00:31:53.180Z,82.60
2017-10-06T00:34:21.448Z,81.90
2017-10-06T00:36:49.862Z,81.50
2017-10-06T00:39:18.145Z,80.90
2017-10-06T00:41:47.168Z,81.90
2017-10-06T00:44:15.447Z,81.80
2017-10-06T00:46:43.705Z,82.20
2017-10-06T00:49:12.015Z,81.70
2017-10-06T00:51:40.275Z,82.50
2017-10-06T00:54:08.565Z,81.90
2017-10-06T00:56:36.829Z,81.90
2017-10-06T00:59:05.139Z,81.20
2017-10-06T01:01:34.168Z,81.10
2017-10-06T01:04:02.440Z,81.00
2017-10-06T01:06:30.720Z,81.40
2017-10-06T01:08:58.983Z,81.10
2017-10-06T01:11:27.263Z,81.00
2017-10-06T01:13:55.520Z,81.30
2017-10-06T01:16:23.831Z,81.00
2017-10-06T01:18:52.107Z,81.00
2017-10-06T01:21:20.390Z,81.00
2017-10-06T01:23:48.680Z,81.00
2017-10-06T01:26:17.729Z,81.00
2017-10-06T01:28:46.008Z,80.80
2017-10-06T01:31:14.282Z,80.90
2017-10-06T01:33:43.338Z,80.90
2017-10-06T01:36:13.111Z,80.90
2017-10-06T01:38:41.400Z,80.80
2017-10-06T01:41:09.660Z,80.80
2017-10-06T01:43:37.975Z,81.00
2017-10-06T01:46:06.244Z,80.90
2017-10-06T01:48:34.500Z,80.80
2017-10-06T01:51:02.776Z,81.40
2017-10-06T01:53:31.032Z,80.80
2017-10-06T01:55:59.320Z,81.00
2017-10-06T01:58:27.580Z,81.00
2017-10-06T02:00:55.857Z,81.00
2017-10-06T02:03:24.136Z,81.10
2017-10-06T02:05:52.444Z,81.10
2017-10-06T02:08:20.707Z,81.00
2017-10-06T02:10:48.970Z,81.00
2017-10-06T02:13:17.250Z,81.50
2017-10-06T02:15:45.508Z,80.90
2017-10-06T02:18:13.796Z,81.30
2017-10-06T02:20:42.837Z,81.30
2017-10-06T02:23:11.116Z,81.30
2017-10-06T02:25:40.880Z,81.00
2017-10-06T02:28:09.175Z,80.90
2017-10-06T02:30:37.435Z,80.20
2017-10-06T02:33:05.700Z,81.00
2017-10-06T02:35:33.975Z,80.90
2017-10-06T02:38:03.007Z,80.70
2017-10-06T02:40:31.272Z,80.50
2017-10-06T02:42:59.536Z,80.90
2017-10-06T02:45:27.815Z,80.90
2017-10-06T02:47:56.079Z,80.90
2017-10-06T02:50:24.393Z,80.90
2017-10-06T02:52:52.659Z,80.90
2017-10-06T02:55:20.919Z,81.50
2017-10-06T02:57:49.199Z,81.10
2017-10-06T03:00:17.468Z,80.90
2017-10-06T03:02:45.752Z,80.90
2017-10-06T03:05:14.791Z,81.00
2017-10-06T03:07:43.182Z,80.90
2017-10-06T03:10:11.488Z,81.00
2017-10-06T03:12:39.793Z,80.50
2017-10-06T03:15:08.052Z,79.30
2017-10-06T03:17:36.328Z,79.40
2017-10-06T03:20:04.612Z,79.20
2017-10-06T03:22:33.671Z,78.90
2017-10-06T03:25:02.704Z,79.70
2017-10-06T03:27:30.968Z,79.60
2017-10-06T03:29:59.263Z,79.70
2017-10-06T03:32:27.748Z,78.70
2017-10-06T03:34:56.004Z,78.20
2017-10-06T03:37:24.265Z,77.50
2017-10-06T03:39:53.321Z,78.80
2017-10-06T03:42:21.590Z,78.60
2017-10-06T03:44:49.922Z,78.70
2017-10-06T03:47:18.180Z,78.30
2017-10-06T03:49:46.487Z,77.70
2017-10-06T03:52:16.252Z,77.40
2017-10-06T03:54:44.512Z,77.40
2017-10-06T03:57:12.793Z,78.20
2017-10-06T03:59:41.120Z,78.20
2017-10-06T04:02:09.372Z,78.10
2017-10-06T04:04:37.631Z,77.70
2017-10-06T04:07:05.912Z,78.70
2017-10-06T04:09:34.183Z,78.70
2017-10-06T04:12:02.464Z,77.80
2017-10-06T04:14:30.726Z,77.80
2017-10-06T04:16:59.000Z,77.80
2017-10-06T04:19:27.259Z,78.00
2017-10-06T04:21:55.567Z,78.30
2017-10-06T04:24:23.819Z,78.50
2017-10-06T04:26:52.132Z,78.60
2017-10-06T04:29:20.388Z,78.30
2017-10-06T04:31:48.669Z,77.80
2017-10-06T04:34:16.937Z,77.90
2017-10-06T04:36:45.968Z,78.70
2017-10-06T04:39:14.244Z,78.60
2017-10-06T04:41:42.531Z,78.70
2017-10-06T04:44:10.812Z,78.10
2017-10-06T04:46:39.832Z,78.40
2017-10-06T04:49:08.336Z,78.40
2017-10-06T04:51:36.609Z,77.10
2017-10-06T04:54:05.636Z,77.20
2017-10-06T04:56:33.916Z,77.20
2017-10-06T04:59:02.180Z,76.30
2017-10-06T05:01:30.456Z,76.50
2017-10-06T05:03:58.725Z,76.70
2017-10-06T05:06:27.024Z,77.70
2017-10-06T05:08:55.303Z,76.90
2017-10-06T05:11:23.595Z,76.90
2017-10-06T05:13:51.876Z,77.10
2017-10-06T05:16:20.183Z,77.00
2017-10-06T05:18:48.460Z,76.50
2017-10-06T05:21:16.840Z,77.10
2017-10-06T05:23:45.177Z,77.60
2017-10-06T05:26:13.435Z,76.50
2017-10-06T05:28:41.696Z,76.90
2017-10-06T05:31:12.949Z,77.10
2017-10-06T05:33:42.732Z,77.00
2017-10-06T05:36:11.016Z,77.00
2017-10-06T05:38:39.273Z,77.30
2017-10-06T05:41:07.533Z,77.60
2017-10-06T05:43:35.826Z,76.90
2017-10-06T05:46:04.848Z,76.50
2017-10-06T05:48:33.128Z,76.50
2017-10-06T05:51:01.416Z,76.00
2017-10-06T05:53:29.716Z,76.00
2017-10-06T05:55:58.001Z,75.90
2017-10-06T05:58:26.254Z,76.10
2017-10-06T06:00:54.528Z,74.90
2017-10-06T06:03:22.788Z,74.80
2017-10-06T06:05:51.093Z,74.60
2017-10-06T06:08:20.132Z,76.80
2017-10-06T06:10:48.624Z,77.40
2017-10-06T06:13:16.888Z,75.60
2017-10-06T06:15:45.923Z,74.60
2017-10-06T06:18:14.205Z,74.50
2017-10-06T06:20:42.513Z,74.20
2017-10-06T06:23:11.552Z,74.00
2017-10-06T06:25:39.816Z,74.00
2017-10-06T06:28:08.092Z,73.50
2017-10-06T06:30:36.352Z,73.20
2017-10-06T06:33:05.403Z,72.70
2017-10-06T06:35:33.668Z,73.10
2017-10-06T06:38:01.933Z,73.30
2017-10-06T06:40:30.217Z,73.50
2017-10-06T06:42:58.472Z,73.10
2017-10-06T06:45:26.759Z,73.10
2017-10-06T06:47:55.016Z,72.40
2017-10-06T06:50:24.076Z,72.40
2017-10-06T06:52:52.336Z,72.30
2017-10-06T06:55:20.600Z,72.30
2017-10-06T06:57:48.875Z,72.50
2017-10-06T07:00:17.909Z,72.40
2017-10-06T07:02:46.416Z,72.30
2017-10-06T07:05:14.708Z,72.40
2017-10-06T07:07:42.973Z,72.40
2017-10-06T07:10:11.247Z,72.40
2017-10-06T07:12:39.515Z,72.40
2017-10-06T07:15:07.784Z,72.40
2017-10-06T07:17:36.048Z,72.40
2017-10-06T07:20:04.328Z,72.40
2017-10-06T07:22:33.519Z,72.40
2017-10-06T07:25:02.568Z,72.50
2017-10-06T07:27:30.824Z,72.50
2017-10-06T07:29:59.105Z,72.60
2017-10-06T07:32:27.368Z,73.10
2017-10-06T07:34:55.644Z,72.60
2017-10-06T07:37:24.667Z,70.90
2017-10-06T07:39:53.084Z,70.80
2017-10-06T07:42:21.328Z,70.80
2017-10-06T07:44:49.591Z,72.60
2017-10-06T07:47:17.875Z,72.20
2017-10-06T07:49:46.891Z,70.80
2017-10-06T07:52:15.180Z,70.70
2017-10-06T07:54:43.438Z,71.60
2017-10-06T07:57:11.696Z,71.90
2017-10-06T07:59:39.972Z,70.30
2017-10-06T08:02:09.024Z,71.20
2017-10-06T08:04:37.295Z,71.20
2017-10-06T08:07:05.566Z,72.90
2017-10-06T08:09:33.884Z,72.50
2017-10-06T08:12:02.144Z,72.90
2017-10-06T08:14:30.412Z,72.80
2017-10-06T08:16:58.693Z,71.60
2017-10-06T08:19:26.953Z,72.80
2017-10-06T08:21:55.264Z,72.80
2017-10-06T08:24:24.287Z,71.50
2017-10-06T08:26:52.600Z,71.50
2017-10-06T08:29:21.664Z,73.20
2017-10-06T08:31:49.925Z,73.00
2017-10-06T08:34:18.209Z,69.20
2017-10-06T08:36:47.247Z,67.60
2017-10-06T08:39:15.528Z,67.60
2017-10-06T08:41:43.800Z,67.40
2017-10-06T08:44:12.181Z,67.50
2017-10-06T08:46:40.560Z,67.20
2017-10-06T08:49:08.872Z,65.00
2017-10-06T08:51:37.149Z,65.60
2017-10-06T08:54:05.663Z,66.30
2017-10-06T08:56:33.948Z,65.70
2017-10-06T08:59:02.220Z,66.70
2017-10-06T09:01:30.500Z,65.40
2017-10-06T09:03:59.581Z,66.60
2017-10-06T09:06:28.652Z,65.60
2017-10-06T09:08:56.923Z,65.50
2017-10-06T09:11:25.963Z,64.70
2017-10-06T09:13:54.248Z,64.60
2017-10-06T09:16:22.515Z,65.70
2017-10-06T09:18:50.808Z,67.30
2017-10-06T09:21:19.091Z,65.70
2017-10-06T09:23:47.396Z,66.60
2017-10-06T09:26:15.676Z,65.70
2017-10-06T09:28:44.703Z,65.60
2017-10-06T09:31:12.984Z,65.50
2017-10-06T09:33:41.256Z,64.30
2017-10-06T09:36:09.544Z,64.80
2017-10-06T09:38:37.842Z,64.40
2017-10-06T09:41:06.147Z,66.20
2017-10-06T09:43:34.416Z,64.80
2017-10-06T09:46:03.444Z,64.30
2017-10-06T09:48:31.724Z,63.80
2017-10-06T09:50:59.992Z,65.30
2017-10-06T09:53:28.280Z,68.50
2017-10-06T09:55:57.308Z,70.50
2017-10-06T09:58:25.607Z,70.40
2017-10-06T10:00:53.880Z,71.90
2017-10-06T10:03:22.916Z,71.10
2017-10-06T10:05:51.228Z,71.00
2017-10-06T10:08:20.316Z,69.50
2017-10-06T10:10:49.375Z,70.00
2017-10-06T10:13:19.153Z,70.30
2017-10-06T10:15:47.483Z,70.30
2017-10-06T10:18:15.752Z,72.60
2017-10-06T10:20:44.020Z,71.20
2017-10-06T10:23:12.319Z,72.50
2017-10-06T10:25:40.581Z,72.60
2017-10-06T10:28:08.943Z,72.60
2017-10-06T10:30:38.032Z,70.50
2017-10-06T10:33:06.435Z,70.50
2017-10-06T10:35:34.741Z,69.10
2017-10-06T10:38:03.037Z,71.50
2017-10-06T10:40:31.347Z,71.90
2017-10-06T10:42:59.608Z,69.60
2017-10-06T10:45:27.935Z,69.50
2017-10-06T10:47:56.233Z,70.20
2017-10-06T10:50:24.577Z,72.90
2017-10-06T10:52:52.922Z,67.60
2017-10-06T10:55:21.295Z,66.50
2017-10-06T10:57:49.661Z,66.30
2017-10-06T11:00:18.070Z,66.40
2017-10-06T11:02:46.417Z,66.00
2017-10-06T11:05:14.786Z,64.50
2017-10-06T11:07:43.487Z,62.00
2017-10-06T11:10:11.872Z,59.80
2017-10-06T11:12:40.154Z,61.20
2017-10-06T11:15:08.436Z,58.80
2017-10-06T11:17:36.706Z,58.70
2017-10-06T11:20:04.988Z,59.60
2017-10-06T11:22:34.024Z,56.60
2017-10-06T11:25:02.328Z,56.60
2017-10-06T11:27:31.364Z,59.60
2017-10-06T11:29:59.639Z,59.40
2017-10-06T11:32:27.928Z,59.10
2017-10-06T11:34:57.000Z,56.70
2017-10-06T11:37:26.042Z,56.20
2017-10-06T11:39:54.308Z,56.10
2017-10-06T11:42:22.597Z,55.20
2017-10-06T11:44:52.403Z,54.90
2017-10-06T11:47:21.443Z,53.20
2017-10-06T11:49:49.703Z,53.10
2017-10-06T11:52:17.996Z,53.60
2017-10-06T11:54:46.268Z,55.10
2017-10-06T11:57:15.327Z,56.10
2017-10-06T11:59:43.596Z,56.00
2017-10-06T12:02:11.892Z,55.20
2017-10-06T12:04:40.169Z,55.80
2017-10-06T12:07:08.440Z,55.90
2017-10-06T12:09:36.732Z,55.70
2017-10-06T12:12:05.003Z,55.90
2017-10-06T12:14:33.284Z,56.20
2017-10-06T12:17:02.320Z,56.10
2017-10-06T12:19:30.600Z,56.10
2017-10-06T12:22:00.396Z,54.80
2017-10-06T12:24:28.680Z,54.70
2017-10-06T12:26:57.728Z,48.60
2017-10-06T12:29:25.995Z,48.50
2017-10-06T12:31:54.276Z,48.80
2017-10-06T12:34:23.312Z,48.90
2017-10-06T12:36:51.596Z,48.70
2017-10-06T12:39:19.984Z,47.00
2017-10-06T12:41:49.252Z,48.30
2017-10-06T12:44:17.516Z,48.30
2017-10-06T12:46:45.781Z,48.70
2017-10-06T12:49:14.840Z,51.10
2017-10-06T12:51:43.108Z,51.10
2017-10-06T12:54:11.395Z,52.10
2017-10-06T12:56:40.424Z,53.90
2017-10-06T12:59:08.760Z,53.90
2017-10-06T13:01:37.028Z,56.60
2017-10-06T13:04:05.300Z,55.40
2017-10-06T13:06:33.579Z,53.90
2017-10-06T13:09:01.856Z,54.60
2017-10-06T13:11:30.140Z,54.80
2017-10-06T13:13:59.183Z,52.20
2017-10-06T13:16:27.513Z,52.20
2017-10-06T13:18:55.780Z,49.00
2017-10-06T13:21:24.055Z,48.70
2017-10-06T13:23:52.340Z,48.60
2017-10-06T13:26:20.612Z,49.00
2017-10-06T13:28:48.896Z,49.20
2017-10-06T13:31:17.163Z,50.20
2017-10-06T13:33:45.604Z,50.40
2017-10-06T13:36:13.872Z,51.40
2017-10-06T13:38:42.903Z,53.10
2017-10-06T13:41:11.192Z,53.10
2017-10-06T13:43:40.972Z,51.70
2017-10-06T13:46:09.256Z,51.60
2017-10-06T13:48:37.524Z,52.80
2017-10-06T13:51:05.992Z,52.60
2017-10-06T13:53:34.248Z,53.00
2017-10-06T13:56:02.513Z,53.10
2017-10-06T13:58:31.564Z,54.10
2017-10-06T14:00:59.839Z,53.70
2017-10-06T14:03:28.113Z,53.60
2017-10-06T14:05:57.144Z,54.90
2017-10-06T14:08:25.630Z,54.70
2017-10-06T14:10:53.896Z,56.40
2017-10-06T14:13:22.160Z,59.60
2017-10-06T14:15:50.444Z,59.60
2017-10-06T14:18:19.492Z,59.20
2017-10-06T14:20:47.899Z,59.10
2017-10-06T14:23:16.172Z,60.10
2017-10-06T14:25:44.436Z,59.80
2017-10-06T14:28:12.743Z,59.20
2017-10-06T14:30:40.999Z,61.40
2017-10-06T14:33:09.276Z,61.30
2017-10-06T14:35:37.550Z,60.40
2017-10-06T14:38:05.852Z,60.80
2017-10-06T14:40:34.119Z,61.70
2017-10-06T14:43:02.393Z,64.20
2017-10-06T14:45:30.676Z,64.10
2017-10-06T14:47:58.943Z,64.10
2017-10-06T14:50:27.228Z,64.30
2017-10-06T14:52:56.256Z,62.40
2017-10-06T14:55:24.576Z,62.40
2017-10-06T14:57:53.608Z,60.10
2017-10-06T15:00:21.872Z,59.90
2017-10-06T15:02:50.164Z,59.80
2017-10-06T15:05:19.216Z,59.40
2017-10-06T15:07:47.500Z,59.40
2017-10-06T15:10:16.540Z,60.60
2017-10-06T15:12:44.844Z,60.50
2017-10-06T15:15:13.880Z,61.70
2017-10-06T15:17:42.164Z,61.70
2017-10-06T15:20:10.444Z,60.60
2017-10-06T15:22:38.708Z,62.10
2017-10-06T15:25:07.756Z,62.40
2017-10-06T15:27:36.024Z,62.30
2017-10-06T15:30:04.304Z,62.60
2017-10-06T15:32:32.568Z,64.90
2017-10-06T15:35:01.636Z,68.10
2017-10-06T15:37:29.900Z,68.00
2017-10-06T15:39:58.184Z,69.80
2017-10-06T15:42:27.216Z,67.30
2017-10-06T15:44:55.536Z,67.30
2017-10-06T15:47:23.808Z,68.90
2017-10-06T15:49:52.068Z,69.30
2017-10-06T15:52:20.351Z,68.90
2017-10-06T15:54:48.628Z,70.70
2017-10-06T15:57:16.907Z,70.60
2017-10-06T15:59:45.177Z,69.30
2017-10-06T16:02:14.229Z,70.50
2017-10-06T16:04:42.523Z,70.40
2017-10-06T16:07:15.494Z,70.50
2017-10-06T16:09:45.136Z,70.90
2017-10-06T16:12:17.385Z,70.90
2017-10-06T16:14:46.568Z,71.20
2017-10-06T16:17:14.831Z,70.00
2017-10-06T16:19:43.117Z,69.80
2017-10-06T16:22:18.132Z,69.40
2017-10-06T16:24:49.960Z,70.10
2017-10-06T16:27:21.212Z,70.00
2017-10-06T16:29:49.544Z,70.50
2017-10-06T16:32:17.812Z,70.90
2017-10-06T16:34:46.084Z,70.70
2017-10-06T16:37:14.696Z,71.00
2017-10-06T16:39:43.724Z,72.60
2017-10-06T16:42:12.016Z,72.50
2017-10-06T16:44:40.295Z,72.80
2017-10-06T16:47:09.569Z,72.70
2017-10-06T16:49:38.603Z,72.70
2017-10-06T16:52:06.864Z,72.70
2017-10-06T16:54:35.148Z,72.80
2017-10-06T16:57:03.412Z,72.80
2017-10-06T16:59:33.212Z,72.90
2017-10-06T17:02:01.484Z,72.80
2017-10-06T17:04:29.951Z,72.80
2017-10-06T17:06:58.220Z,72.80
2017-10-06T17:09:27.251Z,72.80
2017-10-06T17:11:55.536Z,72.70
2017-10-06T17:14:23.804Z,74.60
2017-10-06T17:16:52.088Z,74.40
2017-10-06T17:19:21.128Z,74.00
2017-10-06T17:21:49.619Z,73.90
2017-10-06T17:24:17.888Z,72.70
2017-10-06T17:26:46.931Z,72.70
2017-10-06T17:29:15.220Z,72.60
2017-10-06T17:31:43.501Z,72.80
2017-10-06T17:34:12.545Z,72.60
2017-10-06T17:36:40.816Z,72.60
2017-10-06T17:39:09.096Z,72.70
2017-10-06T17:41:38.140Z,73.50
2017-10-06T17:44:06.444Z,73.40
2017-10-06T17:46:35.483Z,74.00
2017-10-06T17:49:03.752Z,73.90
2017-10-06T17:51:32.036Z,73.70
2017-10-06T17:54:01.103Z,74.60
2017-10-06T17:56:29.372Z,74.20
2017-10-06T17:58:58.452Z,75.90
2017-10-06T18:01:26.764Z,75.10
2017-10-06T18:03:55.040Z,74.60
2017-10-06T18:06:23.307Z,74.60
2017-10-06T18:08:51.592Z,74.70
2017-10-06T18:11:19.865Z,75.40
2017-10-06T18:13:48.957Z,75.30
2017-10-06T18:16:17.250Z,75.20
2017-10-06T18:18:45.656Z,74.80
2017-10-06T18:21:13.928Z,75.20
2017-10-06T18:23:42.196Z,74.10
2017-10-06T18:26:11.248Z,72.50
2017-10-06T18:28:39.516Z,72.50
2017-10-06T18:31:07.827Z,74.40
2017-10-06T18:33:36.108Z,72.50
2017-10-06T18:36:04.372Z,73.90
2017-10-06T18:38:32.654Z,73.70
2017-10-06T18:41:00.923Z,73.40
2017-10-06T18:43:29.204Z,72.50
2017-10-06T18:45:58.257Z,72.60
2017-10-06T18:48:26.571Z,72.50
2017-10-06T18:50:54.855Z,72.40
2017-10-06T18:53:23.124Z,72.50
2017-10-06T18:55:51.407Z,73.10
2017-10-06T18:58:19.708Z,72.50
2017-10-06T19:00:47.992Z,72.00
2017-10-06T19:03:16.256Z,72.40
2017-10-06T19:05:44.548Z,72.40
2017-10-06T19:08:12.812Z,72.30
2017-10-06T19:10:41.081Z,72.30
2017-10-06T19:13:09.456Z,72.30
2017-10-06T19:15:37.715Z,72.40
2017-10-06T19:18:06.002Z,73.00
2017-10-06T19:20:34.272Z,72.50
2017-10-06T19:23:02.564Z,72.50
2017-10-06T19:25:30.851Z,71.40
2017-10-06T19:27:59.155Z,72.60
2017-10-06T19:30:27.428Z,72.50
2017-10-06T19:32:55.692Z,72.50
2017-10-06T19:35:23.971Z,72.40
2017-10-06T19:37:52.240Z,71.80
2017-10-06T19:40:20.544Z,72.40
2017-10-06T19:42:48.815Z,72.40
2017-10-06T19:45:17.112Z,72.50
2017-10-06T19:47:45.408Z,72.40
2017-10-06T19:50:14.482Z,73.10
2017-10-06T19:52:42.754Z,72.40
2017-10-06T19:55:11.850Z,72.70
2017-10-06T19:57:40.904Z,72.40
2017-10-06T20:00:09.156Z,72.30
2017-10-06T20:02:37.439Z,72.40
2017-10-06T20:05:06.475Z,73.20
2017-10-06T20:07:34.756Z,73.90
2017-10-06T20:10:03.028Z,73.40
2017-10-06T20:12:31.324Z,72.40
2017-10-06T20:14:59.644Z,72.40
2017-10-06T20:17:28.799Z,72.40
2017-10-06T20:19:57.068Z,72.40
2017-10-06T20:22:25.339Z,72.40
2017-10-06T20:24:53.620Z,72.40
2017-10-06T20:27:21.889Z,71.50
2017-10-06T20:29:50.956Z,72.10
2017-10-06T20:32:20.925Z,72.00
2017-10-06T20:34:49.196Z,71.80
2017-10-06T20:37:17.475Z,72.50
2017-10-06T20:39:45.752Z,71.90
2017-10-06T20:42:14.800Z,72.60
2017-10-06T20:44:43.067Z,72.20
2017-10-06T20:47:11.520Z,72.50
2017-10-06T20:49:39.793Z,72.30
2017-10-06T20:52:08.064Z,72.40
2017-10-06T20:54:36.348Z,72.40
2017-10-06T20:57:05.380Z,72.40
2017-10-06T20:59:33.672Z,72.40
2017-10-06T21:02:02.708Z,72.40
2017-10-06T21:04:30.991Z,72.30
2017-10-06T21:06:59.268Z,72.30
2017-10-06T21:09:27.736Z,72.30
2017-10-06T21:11:56.002Z,72.40
2017-10-06T21:14:25.041Z,74.60
2017-10-06T21:16:53.327Z,74.60
2017-10-06T21:19:21.696Z,74.70
2017-10-06T21:21:49.976Z,75.60
2017-10-06T21:24:19.012Z,74.60
2017-10-06T21:26:47.332Z,74.60
2017-10-06T21:29:15.608Z,76.00
2017-10-06T21:31:43.880Z,75.30
2017-10-06T21:34:12.164Z,75.30
2017-10-06T21:36:40.428Z,75.20
2017-10-06T21:39:08.712Z,75.70
2017-10-06T21:41:36.980Z,76.70
2017-10-06T21:44:06.072Z,74.40
2017-10-06T21:46:35.108Z,74.50
2017-10-06T21:49:03.383Z,74.40
2017-10-06T21:51:31.669Z,74.60
2017-10-06T21:54:00.793Z,75.70
2017-10-06T21:56:29.072Z,76.70
2017-10-06T21:58:57.336Z,75.40
2017-10-06T22:01:25.621Z,75.10
2017-10-06T22:03:54.676Z,75.30
2017-10-06T22:06:22.947Z,75.20
2017-10-06T22:08:51.225Z,77.60
2017-10-06T22:11:20.261Z,76.40
2017-10-06T22:13:48.539Z,76.30
2017-10-06T22:16:16.804Z,76.50
2017-10-06T22:18:45.076Z,75.60
2017-10-06T22:21:13.359Z,77.40
2017-10-06T22:23:42.390Z,75.50
2017-10-06T22:26:10.685Z,75.40
2017-10-06T22:28:38.955Z,76.20
2017-10-06T22:31:07.983Z,76.90
2017-10-06T22:33:36.268Z,76.90
2017-10-06T22:36:04.532Z,77.20
2017-10-06T22:38:32.812Z,77.50
2017-10-06T22:41:01.073Z,78.20
2017-10-06T22:43:29.350Z,76.50
2017-10-06T22:45:57.651Z,77.10
2017-10-06T22:48:26.067Z,77.70
2017-10-06T22:50:55.099Z,76.10
2017-10-06T22:53:23.361Z,76.70
2017-10-06T22:55:51.631Z,75.90
2017-10-06T22:58:19.932Z,76.00
2017-10-06T23:00:48.996Z,78.30
2017-10-06T23:03:17.251Z,78.30
2017-10-06T23:05:45.518Z,77.30
2017-10-06T23:08:14.569Z,78.40
2017-10-06T23:10:42.839Z,78.40
2017-10-06T23:13:11.116Z,78.60
2017-10-06T23:15:39.379Z,78.20
2017-10-06T23:18:07.654Z,79.30
2017-10-06T23:20:36.670Z,79.90
2017-10-06T23:23:04.923Z,79.80
2017-10-06T23:25:33.211Z,80.60
2017-10-06T23:28:01.463Z,80.50
2017-10-06T23:30:29.735Z,80.90
2017-10-06T23:32:58.007Z,81.00
2017-10-06T23:35:26.312Z,80.90
2017-10-06T23:37:55.359Z,81.20
2017-10-06T23:40:23.615Z,81.10
2017-10-06T23:42:51.893Z,80.60
2017-10-06T23:45:20.175Z,80.80
2017-10-06T23:47:49.194Z,81.80
2017-10-06T23:50:17.455Z,81.70
2017-10-06T23:52:45.756Z,81.90
2017-10-06T23:55:14.775Z,80.40
2017-10-06T23:57:43.039Z,80.90
